sensor_id;sensor_type;location;lat;lon;timestamp;temperature;humidity
8459;DHT22;4266;48.816;9.154;2023-05-07T00:01:06;13.00;99.90
8459;DHT22;4266;48.816;9.154;2023-05-07T00:03:32;13.00;99.90
8459;DHT22;4266;48.816;9.154;2023-05-07T00:05:58;12.90;99.90
8459;DHT22;4266;48.816;9.154;2023-05-07T00:08:23;12.90;99.90
8459;DHT22;4266;48.816;9.154;2023-05-07T00:10:49;12.90;99.90
8459;DHT22;4266;48.816;9.154;2023-05-07T00:13:15;12.70;99.90
8459;DHT22;4266;48.816;9.154;2023-05-07T00:15:40;12.80;99.90
8459;DHT22;4266;48.816;9.154;2023-05-07T00:18:06;12.80;99.90
8459;DHT22;4266;48.816;9.154;2023-05-07T00:20:32;12.80;99.90
8459;DHT22;4266;48.816;9.154;2023-05-07T00:22:58;12.80;99.90
8459;DHT22;4266;48.816;9.154;2023-05-07T00:25:24;12.70;99.90
8459;DHT22;4266;48.816;9.154;2023-05-07T00:27:50;12.70;99.90
8459;DHT22;4266;48.816;9.154;2023-05-07T00:30:15;12.70;99.90
8459;DHT22;4266;48.816;9.154;2023-05-07T00:32:41;12.70;99.90
8459;DHT22;4266;48.816;9.154;2023-05-07T00:35:07;12.60;99.90
8459;DHT22;4266;48.816;9.154;2023-05-07T00:37:34;12.70;99.90
8459;DHT22;4266;48.816;9.154;2023-05-07T00:40:00;12.60;99.90
8459;DHT22;4266;48.816;9.154;2023-05-07T00:42:26;12.60;99.90
8459;DHT22;4266;48.816;9.154;2023-05-07T00:44:52;12.60;99.90
8459;DHT22;4266;48.816;9.154;2023-05-07T00:47:18;12.50;99.90
8459;DHT22;4266;48.816;9.154;2023-05-07T00:49:44;12.50;99.90
8459;DHT22;4266;48.816;9.154;2023-05-07T00:52:11;12.60;99.90
8459;DHT22;4266;48.816;9.154;2023-05-07T00:54:36;12.50;99.90
8459;DHT22;4266;48.816;9.154;2023-05-07T00:57:02;12.50;99.90
8459;DHT22;4266;48.816;9.154;2023-05-07T00:59:27;12.50;99.90
8459;DHT22;4266;48.816;9.154;2023-05-07T01:01:53;12.50;99.90
8459;DHT22;4266;48.816;9.154;2023-05-07T01:04:19;12.50;99.90
8459;DHT22;4266;48.816;9.154;2023-05-07T01:06:45;12.40;99.90
8459;DHT22;4266;48.816;9.154;2023-05-07T01:09:10;12.40;99.90
8459;DHT22;4266;48.816;9.154;2023-05-07T01:11:37;12.40;99.90
8459;DHT22;4266;48.816;9.154;2023-05-07T01:14:02;12.40;99.90
8459;DHT22;4266;48.816;9.154;2023-05-07T01:16:28;12.40;99.90
8459;DHT22;4266;48.816;9.154;2023-05-07T01:18:54;12.40;99.90
8459;DHT22;4266;48.816;9.154;2023-05-07T01:21:19;12.30;99.90
8459;DHT22;4266;48.816;9.154;2023-05-07T01:23:46;12.30;99.90
8459;DHT22;4266;48.816;9.154;2023-05-07T01:26:12;12.20;99.90
8459;DHT22;4266;48.816;9.154;2023-05-07T01:28:37;12.30;99.90
8459;DHT22;4266;48.816;9.154;2023-05-07T01:31:03;12.30;99.90
8459;DHT22;4266;48.816;9.154;2023-05-07T01:33:29;12.20;99.90
8459;DHT22;4266;48.816;9.154;2023-05-07T01:35:54;12.20;99.90
8459;DHT22;4266;48.816;9.154;2023-05-07T01:38:21;12.20;99.90
8459;DHT22;4266;48.816;9.154;2023-05-07T01:40:46;12.20;99.90
8459;DHT22;4266;48.816;9.154;2023-05-07T01:43:12;12.20;99.90
8459;DHT22;4266;48.816;9.154;2023-05-07T01:45:38;12.20;99.90
8459;DHT22;4266;48.816;9.154;2023-05-07T01:48:05;12.20;99.90
8459;DHT22;4266;48.816;9.154;2023-05-07T01:50:30;12.20;99.90
8459;DHT22;4266;48.816;9.154;2023-05-07T01:52:57;12.20;99.90
8459;DHT22;4266;48.816;9.154;2023-05-07T01:55:23;12.20;99.90
8459;DHT22;4266;48.816;9.154;2023-05-07T01:57:49;12.20;99.90
8459;DHT22;4266;48.816;9.154;2023-05-07T02:00:15;12.20;99.90
8459;DHT22;4266;48.816;9.154;2023-05-07T02:02:41;12.10;99.90
8459;DHT22;4266;48.816;9.154;2023-05-07T02:05:07;12.10;99.90
8459;DHT22;4266;48.816;9.154;2023-05-07T02:07:33;12.10;99.90
8459;DHT22;4266;48.816;9.154;2023-05-07T02:09:59;12.10;99.90
8459;DHT22;4266;48.816;9.154;2023-05-07T02:12:25;12.10;99.90
8459;DHT22;4266;48.816;9.154;2023-05-07T02:14:51;12.10;99.90
8459;DHT22;4266;48.816;9.154;2023-05-07T02:17:16;12.10;99.90
8459;DHT22;4266;48.816;9.154;2023-05-07T02:19:42;12.10;99.90
8459;DHT22;4266;48.816;9.154;2023-05-07T02:22:09;12.10;99.90
8459;DHT22;4266;48.816;9.154;2023-05-07T02:24:33;12.10;99.90
8459;DHT22;4266;48.816;9.154;2023-05-07T02:26:59;12.10;99.90
8459;DHT22;4266;48.816;9.154;2023-05-07T02:29:26;12.00;99.90
8459;DHT22;4266;48.816;9.154;2023-05-07T02:31:51;12.00;99.90
8459;DHT22;4266;48.816;9.154;2023-05-07T02:34:17;12.00;99.90
8459;DHT22;4266;48.816;9.154;2023-05-07T02:36:43;11.90;99.90
8459;DHT22;4266;48.816;9.154;2023-05-07T02:39:09;11.90;99.90
8459;DHT22;4266;48.816;9.154;2023-05-07T02:41:35;11.90;99.90
8459;DHT22;4266;48.816;9.154;2023-05-07T02:44:00;11.90;99.90
8459;DHT22;4266;48.816;9.154;2023-05-07T02:46:27;11.80;99.90
8459;DHT22;4266;48.816;9.154;2023-05-07T02:48:52;11.80;99.90
8459;DHT22;4266;48.816;9.154;2023-05-07T02:51:19;11.60;99.90
8459;DHT22;4266;48.816;9.154;2023-05-07T02:53:44;11.60;99.90
8459;DHT22;4266;48.816;9.154;2023-05-07T02:56:10;11.60;99.90
8459;DHT22;4266;48.816;9.154;2023-05-07T02:58:36;11.60;99.90
8459;DHT22;4266;48.816;9.154;2023-05-07T03:01:01;11.60;99.90
8459;DHT22;4266;48.816;9.154;2023-05-07T03:03:27;11.50;99.90
8459;DHT22;4266;48.816;9.154;2023-05-07T03:05:53;11.50;99.90
8459;DHT22;4266;48.816;9.154;2023-05-07T03:08:18;11.40;99.90
8459;DHT22;4266;48.816;9.154;2023-05-07T03:10:45;11.30;99.90
8459;DHT22;4266;48.816;9.154;2023-05-07T03:13:11;11.30;99.90
8459;DHT22;4266;48.816;9.154;2023-05-07T03:15:36;11.20;99.90
8459;DHT22;4266;48.816;9.154;2023-05-07T03:18:03;11.10;99.90
8459;DHT22;4266;48.816;9.154;2023-05-07T03:20:29;11.10;99.90
8459;DHT22;4266;48.816;9.154;2023-05-07T03:22:54;11.10;99.90
8459;DHT22;4266;48.816;9.154;2023-05-07T03:25:20;11.10;99.90
8459;DHT22;4266;48.816;9.154;2023-05-07T03:27:47;11.10;99.90
8459;DHT22;4266;48.816;9.154;2023-05-07T03:30:12;11.00;99.90
8459;DHT22;4266;48.816;9.154;2023-05-07T03:32:38;11.10;99.90
8459;DHT22;4266;48.816;9.154;2023-05-07T03:35:04;11.00;99.90
8459;DHT22;4266;48.816;9.154;2023-05-07T03:37:30;10.90;99.90
8459;DHT22;4266;48.816;9.154;2023-05-07T03:39:56;11.00;99.90
8459;DHT22;4266;48.816;9.154;2023-05-07T03:42:22;11.00;99.90
8459;DHT22;4266;48.816;9.154;2023-05-07T03:44:48;11.00;99.90
8459;DHT22;4266;48.816;9.154;2023-05-07T03:47:13;11.00;99.90
8459;DHT22;4266;48.816;9.154;2023-05-07T03:49:40;10.90;99.90
8459;DHT22;4266;48.816;9.154;2023-05-07T03:52:06;10.90;99.90
8459;DHT22;4266;48.816;9.154;2023-05-07T03:54:31;10.90;99.90
8459;DHT22;4266;48.816;9.154;2023-05-07T03:56:57;10.80;99.90
8459;DHT22;4266;48.816;9.154;2023-05-07T03:59:23;10.80;99.90
8459;DHT22;4266;48.816;9.154;2023-05-07T04:01:49;10.80;99.90
8459;DHT22;4266;48.816;9.154;2023-05-07T04:04:15;10.80;99.90
8459;DHT22;4266;48.816;9.154;2023-05-07T04:06:40;10.90;99.90
8459;DHT22;4266;48.816;9.154;2023-05-07T04:09:06;10.80;99.90
8459;DHT22;4266;48.816;9.154;2023-05-07T04:11:32;10.80;99.90
8459;DHT22;4266;48.816;9.154;2023-05-07T04:13:58;10.80;99.90
8459;DHT22;4266;48.816;9.154;2023-05-07T04:16:23;10.80;99.90
8459;DHT22;4266;48.816;9.154;2023-05-07T04:18:49;10.70;99.90
8459;DHT22;4266;48.816;9.154;2023-05-07T04:21:17;10.80;99.90
8459;DHT22;4266;48.816;9.154;2023-05-07T04:23:42;10.80;99.90
8459;DHT22;4266;48.816;9.154;2023-05-07T04:26:08;10.90;99.90
8459;DHT22;4266;48.816;9.154;2023-05-07T04:28:34;10.90;99.90
8459;DHT22;4266;48.816;9.154;2023-05-07T04:30:59;10.90;99.90
8459;DHT22;4266;48.816;9.154;2023-05-07T04:33:25;11.00;99.90
8459;DHT22;4266;48.816;9.154;2023-05-07T04:35:51;11.10;99.90
8459;DHT22;4266;48.816;9.154;2023-05-07T04:38:17;11.00;99.90
8459;DHT22;4266;48.816;9.154;2023-05-07T04:40:42;11.10;99.90
8459;DHT22;4266;48.816;9.154;2023-05-07T04:43:09;11.20;99.90
8459;DHT22;4266;48.816;9.154;2023-05-07T04:45:35;11.20;99.90
8459;DHT22;4266;48.816;9.154;2023-05-07T04:48:00;11.20;99.90
8459;DHT22;4266;48.816;9.154;2023-05-07T04:50:26;11.30;99.90
8459;DHT22;4266;48.816;9.154;2023-05-07T04:52:52;11.30;99.90
8459;DHT22;4266;48.816;9.154;2023-05-07T04:55:18;11.30;99.90
8459;DHT22;4266;48.816;9.154;2023-05-07T04:57:44;11.30;99.90
8459;DHT22;4266;48.816;9.154;2023-05-07T05:00:10;11.30;99.90
8459;DHT22;4266;48.816;9.154;2023-05-07T05:02:36;11.30;99.90
8459;DHT22;4266;48.816;9.154;2023-05-07T05:05:02;11.40;99.90
8459;DHT22;4266;48.816;9.154;2023-05-07T05:07:28;11.40;99.90
8459;DHT22;4266;48.816;9.154;2023-05-07T05:09:53;11.50;99.90
8459;DHT22;4266;48.816;9.154;2023-05-07T05:12:19;11.60;99.90
8459;DHT22;4266;48.816;9.154;2023-05-07T05:14:44;11.60;99.90
8459;DHT22;4266;48.816;9.154;2023-05-07T05:17:11;11.70;99.90
8459;DHT22;4266;48.816;9.154;2023-05-07T05:19:37;11.70;99.90
8459;DHT22;4266;48.816;9.154;2023-05-07T05:22:02;11.80;99.90
8459;DHT22;4266;48.816;9.154;2023-05-07T05:24:28;11.90;99.90
8459;DHT22;4266;48.816;9.154;2023-05-07T05:26:54;11.90;99.90
8459;DHT22;4266;48.816;9.154;2023-05-07T05:29:20;12.00;99.90
8459;DHT22;4266;48.816;9.154;2023-05-07T05:31:46;12.30;99.90
8459;DHT22;4266;48.816;9.154;2023-05-07T05:34:12;12.30;99.90
8459;DHT22;4266;48.816;9.154;2023-05-07T05:36:38;12.60;99.90
8459;DHT22;4266;48.816;9.154;2023-05-07T05:39:03;12.80;99.90
8459;DHT22;4266;48.816;9.154;2023-05-07T05:41:30;13.00;99.90
8459;DHT22;4266;48.816;9.154;2023-05-07T05:43:55;13.00;99.90
8459;DHT22;4266;48.816;9.154;2023-05-07T05:46:21;13.20;99.90
8459;DHT22;4266;48.816;9.154;2023-05-07T05:48:47;13.50;99.90
8459;DHT22;4266;48.816;9.154;2023-05-07T05:51:12;14.00;99.90
8459;DHT22;4266;48.816;9.154;2023-05-07T05:53:38;14.40;99.90
8459;DHT22;4266;48.816;9.154;2023-05-07T05:56:04;14.50;99.90
8459;DHT22;4266;48.816;9.154;2023-05-07T05:58:30;14.60;99.90
8459;DHT22;4266;48.816;9.154;2023-05-07T06:00:56;14.70;99.90
8459;DHT22;4266;48.816;9.154;2023-05-07T06:03:22;14.60;99.90
8459;DHT22;4266;48.816;9.154;2023-05-07T06:05:48;14.80;99.90
8459;DHT22;4266;48.816;9.154;2023-05-07T06:08:13;15.10;99.90
8459;DHT22;4266;48.816;9.154;2023-05-07T06:10:39;15.20;99.90
8459;DHT22;4266;48.816;9.154;2023-05-07T06:13:05;15.40;99.90
8459;DHT22;4266;48.816;9.154;2023-05-07T06:15:31;16.20;99.90
8459;DHT22;4266;48.816;9.154;2023-05-07T06:17:58;16.20;99.80
8459;DHT22;4266;48.816;9.154;2023-05-07T06:20:23;16.20;99.80
8459;DHT22;4266;48.816;9.154;2023-05-07T06:22:49;16.50;99.20
8459;DHT22;4266;48.816;9.154;2023-05-07T06:25:15;16.80;98.90
8459;DHT22;4266;48.816;9.154;2023-05-07T06:27:41;16.80;98.90
8459;DHT22;4266;48.816;9.154;2023-05-07T06:30:07;17.30;98.20
8459;DHT22;4266;48.816;9.154;2023-05-07T06:32:33;17.50;97.50
8459;DHT22;4266;48.816;9.154;2023-05-07T06:34:59;17.90;97.40
8459;DHT22;4266;48.816;9.154;2023-05-07T06:37:24;18.30;97.40
8459;DHT22;4266;48.816;9.154;2023-05-07T06:39:50;18.80;97.20
8459;DHT22;4266;48.816;9.154;2023-05-07T06:42:16;18.90;96.60
8459;DHT22;4266;48.816;9.154;2023-05-07T06:44:41;19.20;96.40
8459;DHT22;4266;48.816;9.154;2023-05-07T06:47:08;20.10;95.10
8459;DHT22;4266;48.816;9.154;2023-05-07T06:49:33;20.10;95.10
8459;DHT22;4266;48.816;9.154;2023-05-07T06:51:59;21.40;94.70
8459;DHT22;4266;48.816;9.154;2023-05-07T06:54:25;21.30;93.10
8459;DHT22;4266;48.816;9.154;2023-05-07T06:56:51;21.30;93.10
8459;DHT22;4266;48.816;9.154;2023-05-07T06:59:17;21.80;92.60
8459;DHT22;4266;48.816;9.154;2023-05-07T07:01:42;22.00;92.20
8459;DHT22;4266;48.816;9.154;2023-05-07T07:04:08;22.80;92.00
8459;DHT22;4266;48.816;9.154;2023-05-07T07:06:34;21.90;91.60
8459;DHT22;4266;48.816;9.154;2023-05-07T07:09:00;22.70;90.90
8459;DHT22;4266;48.816;9.154;2023-05-07T07:11:25;22.80;90.40
8459;DHT22;4266;48.816;9.154;2023-05-07T07:13:51;23.10;90.40
8459;DHT22;4266;48.816;9.154;2023-05-07T07:16:17;24.20;89.90
8459;DHT22;4266;48.816;9.154;2023-05-07T07:18:43;24.50;90.30
8459;DHT22;4266;48.816;9.154;2023-05-07T07:21:09;24.30;89.70
8459;DHT22;4266;48.816;9.154;2023-05-07T07:23:36;24.80;88.00
8459;DHT22;4266;48.816;9.154;2023-05-07T07:26:02;25.40;87.90
8459;DHT22;4266;48.816;9.154;2023-05-07T07:28:27;26.40;85.50
8459;DHT22;4266;48.816;9.154;2023-05-07T07:30:53;26.90;85.10
8459;DHT22;4266;48.816;9.154;2023-05-07T07:33:19;26.30;82.10
8459;DHT22;4266;48.816;9.154;2023-05-07T07:35:45;25.90;81.60
8459;DHT22;4266;48.816;9.154;2023-05-07T07:38:11;25.90;81.50
8459;DHT22;4266;48.816;9.154;2023-05-07T07:40:36;26.00;82.80
8459;DHT22;4266;48.816;9.154;2023-05-07T07:43:02;26.70;80.40
8459;DHT22;4266;48.816;9.154;2023-05-07T07:45:28;26.00;79.50
8459;DHT22;4266;48.816;9.154;2023-05-07T07:47:53;25.50;80.50
8459;DHT22;4266;48.816;9.154;2023-05-07T07:50:19;25.50;79.40
8459;DHT22;4266;48.816;9.154;2023-05-07T07:52:45;24.70;80.50
8459;DHT22;4266;48.816;9.154;2023-05-07T07:55:11;24.50;80.40
8459;DHT22;4266;48.816;9.154;2023-05-07T07:57:37;25.40;80.40
8459;DHT22;4266;48.816;9.154;2023-05-07T08:00:03;25.10;82.80
8459;DHT22;4266;48.816;9.154;2023-05-07T08:02:30;24.90;81.80
8459;DHT22;4266;48.816;9.154;2023-05-07T08:04:55;24.80;81.70
8459;DHT22;4266;48.816;9.154;2023-05-07T08:07:21;24.70;80.20
8459;DHT22;4266;48.816;9.154;2023-05-07T08:09:47;23.80;81.00
8459;DHT22;4266;48.816;9.154;2023-05-07T08:12:13;24.00;81.70
8459;DHT22;4266;48.816;9.154;2023-05-07T08:14:40;24.00;81.30
8459;DHT22;4266;48.816;9.154;2023-05-07T08:17:05;24.00;81.30
8459;DHT22;4266;48.816;9.154;2023-05-07T08:19:31;24.30;81.20
8459;DHT22;4266;48.816;9.154;2023-05-07T08:21:58;25.50;79.90
8459;DHT22;4266;48.816;9.154;2023-05-07T08:24:23;25.40;79.80
8459;DHT22;4266;48.816;9.154;2023-05-07T08:26:49;25.40;81.80
8459;DHT22;4266;48.816;9.154;2023-05-07T08:29:15;26.00;81.20
8459;DHT22;4266;48.816;9.154;2023-05-07T08:31:41;25.80;78.90
8459;DHT22;4266;48.816;9.154;2023-05-07T08:34:07;25.80;78.90
8459;DHT22;4266;48.816;9.154;2023-05-07T08:36:32;26.10;80.00
8459;DHT22;4266;48.816;9.154;2023-05-07T08:38:59;25.60;78.30
8459;DHT22;4266;48.816;9.154;2023-05-07T08:41:24;24.50;80.40
8459;DHT22;4266;48.816;9.154;2023-05-07T08:43:50;25.70;79.30
8459;DHT22;4266;48.816;9.154;2023-05-07T08:46:17;27.20;78.90
8459;DHT22;4266;48.816;9.154;2023-05-07T08:48:42;28.30;75.10
8459;DHT22;4266;48.816;9.154;2023-05-07T08:51:08;29.00;73.60
8459;DHT22;4266;48.816;9.154;2023-05-07T08:53:33;30.30;72.70
8459;DHT22;4266;48.816;9.154;2023-05-07T08:55:59;29.80;68.80
8459;DHT22;4266;48.816;9.154;2023-05-07T08:58:25;31.00;67.60
8459;DHT22;4266;48.816;9.154;2023-05-07T09:00:51;30.90;67.70
8459;DHT22;4266;48.816;9.154;2023-05-07T09:03:17;30.30;65.90
8459;DHT22;4266;48.816;9.154;2023-05-07T09:05:42;32.10;65.00
8459;DHT22;4266;48.816;9.154;2023-05-07T09:08:08;32.40;61.20
8459;DHT22;4266;48.816;9.154;2023-05-07T09:10:34;32.60;59.30
8459;DHT22;4266;48.816;9.154;2023-05-07T09:12:59;32.60;62.40
8459;DHT22;4266;48.816;9.154;2023-05-07T09:15:26;33.60;57.40
8459;DHT22;4266;48.816;9.154;2023-05-07T09:17:51;33.50;58.60
8459;DHT22;4266;48.816;9.154;2023-05-07T09:20:18;33.40;58.20
8459;DHT22;4266;48.816;9.154;2023-05-07T09:22:42;33.10;58.10
8459;DHT22;4266;48.816;9.154;2023-05-07T09:25:08;33.10;55.40
8459;DHT22;4266;48.816;9.154;2023-05-07T09:27:34;33.20;55.60
8459;DHT22;4266;48.816;9.154;2023-05-07T09:30:03;32.70;56.60
8459;DHT22;4266;48.816;9.154;2023-05-07T09:32:25;35.10;55.20
8459;DHT22;4266;48.816;9.154;2023-05-07T09:34:52;33.70;54.30
8459;DHT22;4266;48.816;9.154;2023-05-07T09:37:20;33.90;53.70
8459;DHT22;4266;48.816;9.154;2023-05-07T09:39:46;33.70;52.90
8459;DHT22;4266;48.816;9.154;2023-05-07T09:42:13;34.20;52.90
8459;DHT22;4266;48.816;9.154;2023-05-07T09:44:39;34.10;52.90
8459;DHT22;4266;48.816;9.154;2023-05-07T09:47:05;34.00;52.50
8459;DHT22;4266;48.816;9.154;2023-05-07T09:49:30;33.30;52.00
8459;DHT22;4266;48.816;9.154;2023-05-07T09:51:56;33.50;52.80
8459;DHT22;4266;48.816;9.154;2023-05-07T09:54:22;33.00;52.60
8459;DHT22;4266;48.816;9.154;2023-05-07T09:56:48;33.60;51.90
8459;DHT22;4266;48.816;9.154;2023-05-07T09:59:15;33.90;51.80
8459;DHT22;4266;48.816;9.154;2023-05-07T10:01:40;34.70;52.20
8459;DHT22;4266;48.816;9.154;2023-05-07T10:04:06;34.10;50.80
8459;DHT22;4266;48.816;9.154;2023-05-07T10:06:32;35.00;50.40
8459;DHT22;4266;48.816;9.154;2023-05-07T10:08:57;33.60;50.00
8459;DHT22;4266;48.816;9.154;2023-05-07T10:11:23;33.10;50.60
8459;DHT22;4266;48.816;9.154;2023-05-07T10:13:49;33.10;50.60
8459;DHT22;4266;48.816;9.154;2023-05-07T10:16:15;33.80;50.60
8459;DHT22;4266;48.816;9.154;2023-05-07T10:18:42;34.20;50.10
8459;DHT22;4266;48.816;9.154;2023-05-07T10:21:08;34.20;50.10
8459;DHT22;4266;48.816;9.154;2023-05-07T10:23:34;34.50;50.20
8459;DHT22;4266;48.816;9.154;2023-05-07T10:26:02;35.60;50.30
8459;DHT22;4266;48.816;9.154;2023-05-07T10:28:26;34.80;49.20
8459;DHT22;4266;48.816;9.154;2023-05-07T10:30:56;35.40;49.30
8459;DHT22;4266;48.816;9.154;2023-05-07T10:33:18;35.50;49.20
8459;DHT22;4266;48.816;9.154;2023-05-07T10:35:43;35.10;49.50
8459;DHT22;4266;48.816;9.154;2023-05-07T10:38:09;34.20;48.00
8459;DHT22;4266;48.816;9.154;2023-05-07T10:40:39;33.80;49.20
8459;DHT22;4266;48.816;9.154;2023-05-07T10:43:04;32.40;48.10
8459;DHT22;4266;48.816;9.154;2023-05-07T10:45:30;31.30;48.20
8459;DHT22;4266;48.816;9.154;2023-05-07T10:48:10;29.70;48.80
8459;DHT22;4266;48.816;9.154;2023-05-07T10:50:35;29.20;49.60
8459;DHT22;4266;48.816;9.154;2023-05-07T10:55:38;28.60;50.40
8459;DHT22;4266;48.816;9.154;2023-05-07T11:00:41;29.70;50.40
8459;DHT22;4266;48.816;9.154;2023-05-07T11:03:06;30.30;49.90
8459;DHT22;4266;48.816;9.154;2023-05-07T11:05:32;30.30;49.40
8459;DHT22;4266;48.816;9.154;2023-05-07T11:07:59;30.20;49.40
8459;DHT22;4266;48.816;9.154;2023-05-07T11:10:47;30.00;50.40
8459;DHT22;4266;48.816;9.154;2023-05-07T11:12:50;29.70;50.20
8459;DHT22;4266;48.816;9.154;2023-05-07T11:15:15;29.60;49.80
8459;DHT22;4266;48.816;9.154;2023-05-07T11:17:53;29.10;49.70
8459;DHT22;4266;48.816;9.154;2023-05-07T11:20:18;29.00;49.60
8459;DHT22;4266;48.816;9.154;2023-05-07T11:22:44;28.80;51.20
8459;DHT22;4266;48.816;9.154;2023-05-07T11:25:10;28.50;52.40
8459;DHT22;4266;48.816;9.154;2023-05-07T11:27:36;28.40;52.10
8459;DHT22;4266;48.816;9.154;2023-05-07T11:30:02;28.20;52.20
8459;DHT22;4266;48.816;9.154;2023-05-07T11:32:28;28.10;53.00
8459;DHT22;4266;48.816;9.154;2023-05-07T11:34:54;27.00;53.50
8459;DHT22;4266;48.816;9.154;2023-05-07T11:37:20;27.00;53.50
8459;DHT22;4266;48.816;9.154;2023-05-07T11:39:46;27.00;54.50
8459;DHT22;4266;48.816;9.154;2023-05-07T11:44:49;26.60;53.80
8459;DHT22;4266;48.816;9.154;2023-05-07T11:47:17;26.10;55.70
8459;DHT22;4266;48.816;9.154;2023-05-07T11:49:42;26.10;55.70
8459;DHT22;4266;48.816;9.154;2023-05-07T11:52:08;25.70;55.70
8459;DHT22;4266;48.816;9.154;2023-05-07T11:54:35;25.40;56.30
8459;DHT22;4266;48.816;9.154;2023-05-07T11:57:00;25.20;57.30
8459;DHT22;4266;48.816;9.154;2023-05-07T11:59:27;25.10;57.40
8459;DHT22;4266;48.816;9.154;2023-05-07T12:01:55;25.00;57.30
8459;DHT22;4266;48.816;9.154;2023-05-07T12:04:19;24.60;58.00
8459;DHT22;4266;48.816;9.154;2023-05-07T12:06:44;24.30;58.60
8459;DHT22;4266;48.816;9.154;2023-05-07T12:09:10;24.20;59.10
8459;DHT22;4266;48.816;9.154;2023-05-07T12:11:36;24.10;59.20
8459;DHT22;4266;48.816;9.154;2023-05-07T12:14:01;24.00;59.70
8459;DHT22;4266;48.816;9.154;2023-05-07T12:16:27;23.70;60.20
8459;DHT22;4266;48.816;9.154;2023-05-07T12:18:53;23.70;61.00
8459;DHT22;4266;48.816;9.154;2023-05-07T12:21:19;23.50;61.50
8459;DHT22;4266;48.816;9.154;2023-05-07T12:23:44;23.40;62.90
8459;DHT22;4266;48.816;9.154;2023-05-07T12:26:10;23.10;64.20
8459;DHT22;4266;48.816;9.154;2023-05-07T12:28:36;22.60;67.30
8459;DHT22;4266;48.816;9.154;2023-05-07T12:31:01;22.30;74.20
8459;DHT22;4266;48.816;9.154;2023-05-07T12:33:27;21.90;80.80
8459;DHT22;4266;48.816;9.154;2023-05-07T12:35:53;21.50;82.10
8459;DHT22;4266;48.816;9.154;2023-05-07T12:38:18;21.20;83.00
8459;DHT22;4266;48.816;9.154;2023-05-07T12:40:46;20.40;86.50
8459;DHT22;4266;48.816;9.154;2023-05-07T12:46:00;20.00;89.20
8459;DHT22;4266;48.816;9.154;2023-05-07T12:48:27;19.40;90.70
8459;DHT22;4266;48.816;9.154;2023-05-07T12:50:53;19.40;90.70
8459;DHT22;4266;48.816;9.154;2023-05-07T12:53:20;19.00;91.10
8459;DHT22;4266;48.816;9.154;2023-05-07T12:55:45;18.80;92.60
8459;DHT22;4266;48.816;9.154;2023-05-07T12:58:20;18.10;96.00
8459;DHT22;4266;48.816;9.154;2023-05-07T13:00:47;18.00;96.00
8459;DHT22;4266;48.816;9.154;2023-05-07T13:03:11;17.70;97.80
8459;DHT22;4266;48.816;9.154;2023-05-07T13:05:36;17.20;99.90
8459;DHT22;4266;48.816;9.154;2023-05-07T13:08:03;16.90;99.90
8459;DHT22;4266;48.816;9.154;2023-05-07T13:10:29;16.90;99.90
8459;DHT22;4266;48.816;9.154;2023-05-07T13:12:54;16.90;99.90
8459;DHT22;4266;48.816;9.154;2023-05-07T13:15:21;16.70;99.90
8459;DHT22;4266;48.816;9.154;2023-05-07T13:17:46;16.70;99.90
8459;DHT22;4266;48.816;9.154;2023-05-07T13:20:12;16.50;99.90
8459;DHT22;4266;48.816;9.154;2023-05-07T13:22:38;16.30;99.90
8459;DHT22;4266;48.816;9.154;2023-05-07T13:25:04;16.20;99.90
8459;DHT22;4266;48.816;9.154;2023-05-07T13:27:30;15.90;99.90
8459;DHT22;4266;48.816;9.154;2023-05-07T13:29:55;15.70;99.90
8459;DHT22;4266;48.816;9.154;2023-05-07T13:32:21;15.50;99.90
8459;DHT22;4266;48.816;9.154;2023-05-07T13:34:47;15.30;99.90
8459;DHT22;4266;48.816;9.154;2023-05-07T13:37:13;15.10;99.90
8459;DHT22;4266;48.816;9.154;2023-05-07T13:39:39;15.10;99.90
8459;DHT22;4266;48.816;9.154;2023-05-07T13:42:05;14.90;99.90
8459;DHT22;4266;48.816;9.154;2023-05-07T13:44:30;15.00;99.90
8459;DHT22;4266;48.816;9.154;2023-05-07T13:46:56;15.20;99.90
8459;DHT22;4266;48.816;9.154;2023-05-07T13:49:22;15.20;99.90
8459;DHT22;4266;48.816;9.154;2023-05-07T13:51:47;15.10;99.90
8459;DHT22;4266;48.816;9.154;2023-05-07T13:54:13;14.80;99.90
8459;DHT22;4266;48.816;9.154;2023-05-07T13:56:39;14.70;99.90
8459;DHT22;4266;48.816;9.154;2023-05-07T13:59:04;15.20;99.90
8459;DHT22;4266;48.816;9.154;2023-05-07T14:01:30;15.40;99.90
8459;DHT22;4266;48.816;9.154;2023-05-07T14:03:56;15.50;99.90
8459;DHT22;4266;48.816;9.154;2023-05-07T14:06:21;15.60;99.90
8459;DHT22;4266;48.816;9.154;2023-05-07T14:08:47;15.50;99.90
8459;DHT22;4266;48.816;9.154;2023-05-07T14:11:13;15.60;99.90
8459;DHT22;4266;48.816;9.154;2023-05-07T14:13:38;15.40;99.90
8459;DHT22;4266;48.816;9.154;2023-05-07T14:16:04;15.50;99.90
8459;DHT22;4266;48.816;9.154;2023-05-07T14:18:34;15.70;99.90
8459;DHT22;4266;48.816;9.154;2023-05-07T14:20:59;15.80;99.90
8459;DHT22;4266;48.816;9.154;2023-05-07T14:23:25;15.80;99.90
8459;DHT22;4266;48.816;9.154;2023-05-07T14:25:51;15.80;99.90
8459;DHT22;4266;48.816;9.154;2023-05-07T14:28:16;15.70;99.90
8459;DHT22;4266;48.816;9.154;2023-05-07T14:30:42;15.80;99.90
8459;DHT22;4266;48.816;9.154;2023-05-07T14:33:08;15.70;99.90
8459;DHT22;4266;48.816;9.154;2023-05-07T14:35:34;15.70;99.90
8459;DHT22;4266;48.816;9.154;2023-05-07T14:38:01;15.70;99.90
8459;DHT22;4266;48.816;9.154;2023-05-07T14:40:26;15.70;99.90
8459;DHT22;4266;48.816;9.154;2023-05-07T14:42:52;15.70;99.90
8459;DHT22;4266;48.816;9.154;2023-05-07T14:45:18;15.70;99.90
8459;DHT22;4266;48.816;9.154;2023-05-07T14:47:43;15.80;99.90
8459;DHT22;4266;48.816;9.154;2023-05-07T14:50:09;15.80;99.90
8459;DHT22;4266;48.816;9.154;2023-05-07T14:52:35;15.80;99.90
8459;DHT22;4266;48.816;9.154;2023-05-07T14:55:01;15.80;99.90
8459;DHT22;4266;48.816;9.154;2023-05-07T14:57:27;15.90;99.90
8459;DHT22;4266;48.816;9.154;2023-05-07T14:59:53;16.00;99.90
8459;DHT22;4266;48.816;9.154;2023-05-07T15:02:19;16.00;99.90
8459;DHT22;4266;48.816;9.154;2023-05-07T15:04:45;16.10;99.90
8459;DHT22;4266;48.816;9.154;2023-05-07T15:07:11;16.10;99.90
8459;DHT22;4266;48.816;9.154;2023-05-07T15:09:37;16.20;99.90
8459;DHT22;4266;48.816;9.154;2023-05-07T15:12:02;16.20;99.90
8459;DHT22;4266;48.816;9.154;2023-05-07T15:14:29;16.30;99.90
8459;DHT22;4266;48.816;9.154;2023-05-07T15:16:55;16.40;99.90
8459;DHT22;4266;48.816;9.154;2023-05-07T15:19:21;16.40;99.90
8459;DHT22;4266;48.816;9.154;2023-05-07T15:21:47;16.50;99.90
8459;DHT22;4266;48.816;9.154;2023-05-07T15:24:12;16.40;99.90
8459;DHT22;4266;48.816;9.154;2023-05-07T15:26:39;16.50;99.90
8459;DHT22;4266;48.816;9.154;2023-05-07T15:29:04;16.50;99.90
8459;DHT22;4266;48.816;9.154;2023-05-07T15:31:30;16.60;99.90
8459;DHT22;4266;48.816;9.154;2023-05-07T15:33:56;16.70;99.90
8459;DHT22;4266;48.816;9.154;2023-05-07T15:36:21;16.70;99.90
8459;DHT22;4266;48.816;9.154;2023-05-07T15:38:48;16.80;99.90
8459;DHT22;4266;48.816;9.154;2023-05-07T15:41:14;16.80;99.90
8459;DHT22;4266;48.816;9.154;2023-05-07T15:43:43;17.00;99.90
8459;DHT22;4266;48.816;9.154;2023-05-07T15:46:05;17.00;99.90
8459;DHT22;4266;48.816;9.154;2023-05-07T15:48:30;17.00;99.90
8459;DHT22;4266;48.816;9.154;2023-05-07T15:50:56;17.10;99.90
8459;DHT22;4266;48.816;9.154;2023-05-07T15:53:22;17.10;99.90
8459;DHT22;4266;48.816;9.154;2023-05-07T15:55:47;17.00;99.90
8459;DHT22;4266;48.816;9.154;2023-05-07T15:58:13;17.10;99.90
8459;DHT22;4266;48.816;9.154;2023-05-07T16:00:39;17.00;99.90
8459;DHT22;4266;48.816;9.154;2023-05-07T16:03:05;17.00;99.90